CMA CGM Verlaine — DASO — position and weather

sailwx.info

Track history (hours):
 
Tides and Currents Weather Stations Pressure Air Temp Water Temp Dewpoint Dewpoint Depression Visibility Wind Speed Wind Dir Waves Ship Positions

CMA CGM Verlaine

Last reported at 2014-Jul-28 03:31 UTC. Time now 2014-Jul-31 21:48 UTC.
Position N 25°09' W 080°07'.

Length 300 m; beam 40 m; draft 14.5 m.

Type: Ship. MMSI: 211378820.

Date/timePositionNaut miles runAvg speedWind from/ knotsBaromVisibWave heightAir tempDewpointWater temp
2014-Jul-28 03:31N 25°09' W 080°07'1819.1
2014-Jul-28 02:33N 25°27' W 080°01'1918.6
2014-Jul-28 01:33N 25°45' W 079°59'1716.9
2014-Jul-28 00:33N 26°02' W 080°01'6 6.3
2014-Jul-27 23:34N 26°05' W 080°07'1 0.6
2014-Jul-27 22:25N 26°04' W 080°07'0 0.0
2014-Jul-27 21:33N 26°04' W 080°07'0 0.0
2014-Jul-27 20:27N 26°04' W 080°07'0 0.0
2014-Jul-27 19:20N 26°04' W 080°07'0 0.0
2014-Jul-27 18:29N 26°04' W 080°07'0 0.0
2014-Jul-27 17:23N 26°04' W 080°07'0 0.0
2014-Jul-27 16:31N 26°04' W 080°07'0 0.0
2014-Jul-27 15:25N 26°04' W 080°07'0 0.0
2014-Jul-27 14:33N 26°04' W 080°07'0 0.0
2014-Jul-27 13:27N 26°04' W 080°07'0 0.0
2014-Jul-27 12:33N 26°04' W 080°07'0 0.0
2014-Jul-27 11:29N 26°04' W 080°07'0 0.0
2014-Jul-27 10:23N 26°04' W 080°07'0 0.0
2014-Jul-27 09:31N 26°04' W 080°07'0 0.0
2014-Jul-27 08:25N 26°04' W 080°07'0 0.0
2014-Jul-27 07:33N 26°04' W 080°07'0 0.0
2014-Jul-27 06:27N 26°04' W 080°07'0 0.0
2014-Jul-27 05:32N 26°04' W 080°07'0 0.0
2014-Jul-27 04:31N 26°04' W 080°07'0 0.0
2014-Jul-27 03:25N 26°04' W 080°07'0 0.0
2014-Jul-27 02:33N 26°04' W 080°07'0 0.0
2014-Jul-27 01:27N 26°04' W 080°07'0 0.0
2014-Jul-27 00:33N 26°04' W 080°07'0 0.0
2014-Jul-26 23:29N 26°04' W 080°07'1 1.6
2014-Jul-26 22:34N 26°06' W 080°06'4 4.2
2014-Jul-26 21:34N 26°06' W 080°02'9 9.3
2014-Jul-26 20:33N 26°14' W 079°56'4 3.8
2014-Jul-26 19:33N 26°10' W 079°56'4 3.6
2014-Jul-26 18:34N 26°06' W 079°56'8 7.8
2014-Jul-26 17:33N 26°09' W 079°47'1211.7
2014-Jul-26 16:34N 26°14' W 079°36'1312.7
2014-Jul-26 15:33N 26°18' W 079°23'1313.2
2014-Jul-26 14:33N 26°22' W 079°09'  
2014-Jul-20 16:00N 32°00' W 042°18'45416.2 999 / 21026.010.8 26.123.326.0
2014-Jul-19 12:00N 33°36' W 033°30'28016.0 030 / 41025.010.8 0.526.018.624.0
2014-Jul-18 18:32N 34°37' W 027°60'3216.2
2014-Jul-18 16:33N 34°43' W 027°22'2116.1
2014-Jul-18 15:15N 34°48' W 026°57'1316.1
2014-Jul-18 14:27N 34°50' W 026°41'1616.6
2014-Jul-18 13:29N 34°54' W 026°22'10116.0
2014-Jul-18 07:10N 35°15' W 024°21'1015.6
2014-Jul-18 06:31N 35°17' W 024°09'  
Track history (hours):
 
Tides and Currents Weather Stations Pressure Air Temp Water Temp Dewpoint Dewpoint Depression Visibility Wind Speed Wind Dir Waves Ship Positions

CMA CGM Verlaine

Last reported at 2014-Jul-28 03:31 UTC. Time now 2014-Jul-31 21:48 UTC.
Position N 25°09' W 080°07'.

Length 300 m; beam 40 m; draft 14.5 m.

Type: Ship. MMSI: 211378820.

Date/timePositionNaut miles runAvg speedWind from/ knotsBaromVisibWave heightAir tempDewpointWater temp
2014-Jul-28 03:31N 25°09' W 080°07'1819.1
2014-Jul-28 02:33N 25°27' W 080°01'1918.6
2014-Jul-28 01:33N 25°45' W 079°59'1716.9
2014-Jul-28 00:33N 26°02' W 080°01'6 6.3
2014-Jul-27 23:34N 26°05' W 080°07'1 0.6
2014-Jul-27 22:25N 26°04' W 080°07'0 0.0
2014-Jul-27 21:33N 26°04' W 080°07'0 0.0
2014-Jul-27 20:27N 26°04' W 080°07'0 0.0
2014-Jul-27 19:20N 26°04' W 080°07'0 0.0
2014-Jul-27 18:29N 26°04' W 080°07'0 0.0
2014-Jul-27 17:23N 26°04' W 080°07'0 0.0
2014-Jul-27 16:31N 26°04' W 080°07'0 0.0
2014-Jul-27 15:25N 26°04' W 080°07'0 0.0
2014-Jul-27 14:33N 26°04' W 080°07'0 0.0
2014-Jul-27 13:27N 26°04' W 080°07'0 0.0
2014-Jul-27 12:33N 26°04' W 080°07'0 0.0
2014-Jul-27 11:29N 26°04' W 080°07'0 0.0
2014-Jul-27 10:23N 26°04' W 080°07'0 0.0
2014-Jul-27 09:31N 26°04' W 080°07'0 0.0
2014-Jul-27 08:25N 26°04' W 080°07'0 0.0
2014-Jul-27 07:33N 26°04' W 080°07'0 0.0
2014-Jul-27 06:27N 26°04' W 080°07'0 0.0
2014-Jul-27 05:32N 26°04' W 080°07'0 0.0
2014-Jul-27 04:31N 26°04' W 080°07'0 0.0
2014-Jul-27 03:25N 26°04' W 080°07'0 0.0
2014-Jul-27 02:33N 26°04' W 080°07'0 0.0
2014-Jul-27 01:27N 26°04' W 080°07'0 0.0
2014-Jul-27 00:33N 26°04' W 080°07'0 0.0
2014-Jul-26 23:29N 26°04' W 080°07'1 1.6
2014-Jul-26 22:34N 26°06' W 080°06'4 4.2
2014-Jul-26 21:34N 26°06' W 080°02'9 9.3
2014-Jul-26 20:33N 26°14' W 079°56'4 3.8
2014-Jul-26 19:33N 26°10' W 079°56'4 3.6
2014-Jul-26 18:34N 26°06' W 079°56'8 7.8
2014-Jul-26 17:33N 26°09' W 079°47'1211.7
2014-Jul-26 16:34N 26°14' W 079°36'1312.7
2014-Jul-26 15:33N 26°18' W 079°23'1313.2
2014-Jul-26 14:33N 26°22' W 079°09'  
2014-Jul-20 16:00N 32°00' W 042°18'45416.2 999 / 21026.010.8 26.123.326.0
2014-Jul-19 12:00N 33°36' W 033°30'28016.0 030 / 41025.010.8 0.526.018.624.0
2014-Jul-18 18:32N 34°37' W 027°60'3216.2
2014-Jul-18 16:33N 34°43' W 027°22'2116.1
2014-Jul-18 15:15N 34°48' W 026°57'1316.1
2014-Jul-18 14:27N 34°50' W 026°41'1616.6
2014-Jul-18 13:29N 34°54' W 026°22'10116.0
2014-Jul-18 07:10N 35°15' W 024°21'1015.6
2014-Jul-18 06:31N 35°17' W 024°09'  

Dump ship's entire track history